Cadillac, Michigan
Current Conditions -  °F | °C
As of 2:35 PM on Friday 28 Nov 2014 (Local Time) from KCAD Reporting Station
Light Snow Light Snow  
Wind Chill: -11°   Ceiling: 1200
Heat Index: -6°   Visibility: 4mi
Dew Point: -8°   Wind: 7mph
Humidity: 85%   Direction: 150°SSE
Pressure: 30.06"   Gusts: NA
Location:  44.26°N, 85.4°W
Report Text: KCAD 281935Z AUTO 15006KT 4SM -SN BKN012 OVC020 M06/M08 A3006 RMK AO2 T10611082
Loading
Personal Weather Stations






























Interactive Weather Map New forecast layout! Learn more

10-Day Weather Forecast

Advertisements
Track Severe Weather on mobile